TAF EGNX
EGNX 280453Z 2806/2906 29008KT 9999 FEW035 TEMPO 2813/2817 7000 RA BKN012 PROB40 TEMPO 2813/2817 4000 RASN BKN009 PROB30 TEMPO 2813/2817 1200 SN BKN004 PROB30 2821/2906 8000=
METAR EGNX
WC EGNX
WS EGNX
WV EGNX